sensor_id;sensor_type;location;lat;lon;timestamp;P1;durP1;ratioP1;P2;durP2;ratioP2
30380;SDS011;17169;50.966;11.038;2023-08-07T00:01:03;6.72;;;1.33;;
30380;SDS011;17169;50.966;11.038;2023-08-07T00:04:06;1.35;;;1.00;;
30380;SDS011;17169;50.966;11.038;2023-08-07T00:07:08;4.07;;;0.90;;
30380;SDS011;17169;50.966;11.038;2023-08-07T00:10:10;1.67;;;1.10;;
30380;SDS011;17169;50.966;11.038;2023-08-07T00:13:13;2.35;;;1.10;;
30380;SDS011;17169;50.966;11.038;2023-08-07T00:16:17;1.65;;;1.10;;
30380;SDS011;17169;50.966;11.038;2023-08-07T00:19:19;1.38;;;1.00;;
30380;SDS011;17169;50.966;11.038;2023-08-07T00:22:22;1.50;;;1.10;;
30380;SDS011;17169;50.966;11.038;2023-08-07T00:25:25;1.98;;;1.10;;
30380;SDS011;17169;50.966;11.038;2023-08-07T00:28:28;1.88;;;1.00;;
30380;SDS011;17169;50.966;11.038;2023-08-07T00:31:32;1.20;;;0.82;;
30380;SDS011;17169;50.966;11.038;2023-08-07T00:34:34;3.53;;;1.10;;
30380;SDS011;17169;50.966;11.038;2023-08-07T00:37:36;1.75;;;1.10;;
30380;SDS011;17169;50.966;11.038;2023-08-07T00:40:39;2.00;;;1.17;;
30380;SDS011;17169;50.966;11.038;2023-08-07T00:43:42;4.82;;;1.33;;
30380;SDS011;17169;50.966;11.038;2023-08-07T00:46:45;2.47;;;1.25;;
30380;SDS011;17169;50.966;11.038;2023-08-07T00:49:48;1.95;;;1.00;;
30380;SDS011;17169;50.966;11.038;2023-08-07T00:52:51;2.13;;;1.10;;
30380;SDS011;17169;50.966;11.038;2023-08-07T00:55:53;2.80;;;1.35;;
30380;SDS011;17169;50.966;11.038;2023-08-07T00:58:56;3.15;;;1.15;;
30380;SDS011;17169;50.966;11.038;2023-08-07T01:02:00;4.75;;;1.15;;
30380;SDS011;17169;50.966;11.038;2023-08-07T01:05:03;3.38;;;1.00;;
30380;SDS011;17169;50.966;11.038;2023-08-07T01:08:06;3.22;;;1.05;;
30380;SDS011;17169;50.966;11.038;2023-08-07T01:11:11;3.50;;;1.23;;
30380;SDS011;17169;50.966;11.038;2023-08-07T01:14:25;2.05;;;1.00;;
30380;SDS011;17169;50.966;11.038;2023-08-07T01:17:41;1.60;;;1.15;;
30380;SDS011;17169;50.966;11.038;2023-08-07T01:20:45;1.70;;;1.08;;
30380;SDS011;17169;50.966;11.038;2023-08-07T01:23:48;2.72;;;1.17;;
30380;SDS011;17169;50.966;11.038;2023-08-07T01:26:51;1.60;;;1.00;;
30380;SDS011;17169;50.966;11.038;2023-08-07T01:29:57;1.77;;;1.17;;
30380;SDS011;17169;50.966;11.038;2023-08-07T01:33:05;4.85;;;1.65;;
30380;SDS011;17169;50.966;11.038;2023-08-07T01:36:12;2.60;;;0.98;;
30380;SDS011;17169;50.966;11.038;2023-08-07T01:39:17;1.25;;;0.82;;
30380;SDS011;17169;50.966;11.038;2023-08-07T01:42:20;1.20;;;0.88;;
30380;SDS011;17169;50.966;11.038;2023-08-07T01:45:23;2.78;;;1.10;;
30380;SDS011;17169;50.966;11.038;2023-08-07T01:48:26;1.13;;;0.90;;
30380;SDS011;17169;50.966;11.038;2023-08-07T01:51:28;3.17;;;0.90;;
30380;SDS011;17169;50.966;11.038;2023-08-07T01:54:32;3.70;;;1.00;;
30380;SDS011;17169;50.966;11.038;2023-08-07T01:57:34;3.05;;;0.82;;
30380;SDS011;17169;50.966;11.038;2023-08-07T02:00:37;1.50;;;0.90;;
30380;SDS011;17169;50.966;11.038;2023-08-07T02:03:39;2.67;;;1.00;;
30380;SDS011;17169;50.966;11.038;2023-08-07T02:06:41;1.63;;;0.90;;
30380;SDS011;17169;50.966;11.038;2023-08-07T02:09:45;2.58;;;1.00;;
30380;SDS011;17169;50.966;11.038;2023-08-07T02:12:48;3.45;;;1.00;;
30380;SDS011;17169;50.966;11.038;2023-08-07T02:15:51;3.45;;;1.17;;
30380;SDS011;17169;50.966;11.038;2023-08-07T02:18:53;2.05;;;0.82;;
30380;SDS011;17169;50.966;11.038;2023-08-07T02:21:55;3.30;;;1.33;;
30380;SDS011;17169;50.966;11.038;2023-08-07T02:24:59;2.85;;;1.42;;
30380;SDS011;17169;50.966;11.038;2023-08-07T02:28:01;3.25;;;1.00;;
30380;SDS011;17169;50.966;11.038;2023-08-07T02:31:04;1.52;;;0.98;;
30380;SDS011;17169;50.966;11.038;2023-08-07T02:34:06;2.65;;;0.90;;
30380;SDS011;17169;50.966;11.038;2023-08-07T02:37:09;2.78;;;1.27;;
30380;SDS011;17169;50.966;11.038;2023-08-07T02:40:12;2.33;;;1.27;;
30380;SDS011;17169;50.966;11.038;2023-08-07T02:43:16;3.08;;;1.25;;
30380;SDS011;17169;50.966;11.038;2023-08-07T02:46:18;1.80;;;0.90;;
30380;SDS011;17169;50.966;11.038;2023-08-07T02:49:20;4.68;;;1.30;;
30380;SDS011;17169;50.966;11.038;2023-08-07T02:52:23;4.53;;;0.95;;
30380;SDS011;17169;50.966;11.038;2023-08-07T02:55:26;2.40;;;0.82;;
30380;SDS011;17169;50.966;11.038;2023-08-07T02:58:29;6.20;;;1.00;;
30380;SDS011;17169;50.966;11.038;2023-08-07T03:01:31;2.58;;;1.20;;
30380;SDS011;17169;50.966;11.038;2023-08-07T03:04:33;3.35;;;1.02;;
30380;SDS011;17169;50.966;11.038;2023-08-07T03:07:36;2.30;;;0.98;;
30380;SDS011;17169;50.966;11.038;2023-08-07T03:10:39;2.97;;;1.20;;
30380;SDS011;17169;50.966;11.038;2023-08-07T03:13:42;1.92;;;1.00;;
30380;SDS011;17169;50.966;11.038;2023-08-07T03:16:44;3.15;;;1.65;;
30380;SDS011;17169;50.966;11.038;2023-08-07T03:19:47;1.40;;;0.90;;
30380;SDS011;17169;50.966;11.038;2023-08-07T03:22:49;1.55;;;0.93;;
30380;SDS011;17169;50.966;11.038;2023-08-07T03:26:02;2.10;;;1.00;;
30380;SDS011;17169;50.966;11.038;2023-08-07T03:29:05;2.15;;;0.88;;
30380;SDS011;17169;50.966;11.038;2023-08-07T03:32:08;1.80;;;0.80;;
30380;SDS011;17169;50.966;11.038;2023-08-07T03:35:10;1.42;;;0.90;;
30380;SDS011;17169;50.966;11.038;2023-08-07T03:38:13;6.18;;;1.00;;
30380;SDS011;17169;50.966;11.038;2023-08-07T03:41:16;1.88;;;0.90;;
30380;SDS011;17169;50.966;11.038;2023-08-07T03:44:19;2.30;;;0.77;;
30380;SDS011;17169;50.966;11.038;2023-08-07T03:47:21;2.53;;;0.95;;
30380;SDS011;17169;50.966;11.038;2023-08-07T03:50:23;1.27;;;0.75;;
30380;SDS011;17169;50.966;11.038;2023-08-07T03:53:26;0.90;;;0.73;;
30380;SDS011;17169;50.966;11.038;2023-08-07T03:56:29;2.53;;;1.65;;
30380;SDS011;17169;50.966;11.038;2023-08-07T03:59:36;1.48;;;0.70;;
30380;SDS011;17169;50.966;11.038;2023-08-07T04:02:39;1.95;;;0.60;;
30380;SDS011;17169;50.966;11.038;2023-08-07T04:05:41;3.33;;;0.82;;
30380;SDS011;17169;50.966;11.038;2023-08-07T04:08:44;1.17;;;0.70;;
30380;SDS011;17169;50.966;11.038;2023-08-07T04:11:48;3.10;;;0.75;;
30380;SDS011;17169;50.966;11.038;2023-08-07T04:14:51;1.23;;;0.60;;
30380;SDS011;17169;50.966;11.038;2023-08-07T04:17:53;1.85;;;0.75;;
30380;SDS011;17169;50.966;11.038;2023-08-07T04:20:56;0.85;;;0.57;;
30380;SDS011;17169;50.966;11.038;2023-08-07T04:23:58;0.93;;;0.40;;
30380;SDS011;17169;50.966;11.038;2023-08-07T04:27:03;0.60;;;0.60;;
30380;SDS011;17169;50.966;11.038;2023-08-07T04:30:06;2.15;;;0.80;;
30380;SDS011;17169;50.966;11.038;2023-08-07T04:33:09;1.05;;;0.55;;
30380;SDS011;17169;50.966;11.038;2023-08-07T04:36:11;3.10;;;0.80;;
30380;SDS011;17169;50.966;11.038;2023-08-07T04:39:13;2.05;;;0.65;;
30380;SDS011;17169;50.966;11.038;2023-08-07T04:42:17;1.15;;;0.70;;
30380;SDS011;17169;50.966;11.038;2023-08-07T04:45:20;1.85;;;0.68;;
30380;SDS011;17169;50.966;11.038;2023-08-07T04:48:22;1.27;;;0.68;;
30380;SDS011;17169;50.966;11.038;2023-08-07T04:51:26;7.40;;;0.77;;
30380;SDS011;17169;50.966;11.038;2023-08-07T04:54:29;1.23;;;0.77;;
30380;SDS011;17169;50.966;11.038;2023-08-07T04:57:32;0.60;;;0.60;;
30380;SDS011;17169;50.966;11.038;2023-08-07T05:00:35;0.50;;;0.50;;
30380;SDS011;17169;50.966;11.038;2023-08-07T05:03:37;1.45;;;0.82;;
30380;SDS011;17169;50.966;11.038;2023-08-07T05:06:40;1.15;;;0.70;;
30380;SDS011;17169;50.966;11.038;2023-08-07T05:09:42;2.65;;;0.82;;
30380;SDS011;17169;50.966;11.038;2023-08-07T05:12:46;3.03;;;0.90;;
30380;SDS011;17169;50.966;11.038;2023-08-07T05:15:50;0.70;;;0.60;;
30380;SDS011;17169;50.966;11.038;2023-08-07T05:18:53;1.13;;;0.70;;
30380;SDS011;17169;50.966;11.038;2023-08-07T05:21:55;1.10;;;0.73;;
30380;SDS011;17169;50.966;11.038;2023-08-07T05:24:57;0.60;;;0.47;;
30380;SDS011;17169;50.966;11.038;2023-08-07T05:28:01;1.60;;;0.60;;
30380;SDS011;17169;50.966;11.038;2023-08-07T05:31:04;1.35;;;0.70;;
30380;SDS011;17169;50.966;11.038;2023-08-07T05:34:06;1.48;;;0.70;;
30380;SDS011;17169;50.966;11.038;2023-08-07T05:37:08;0.85;;;0.57;;
30380;SDS011;17169;50.966;11.038;2023-08-07T05:40:11;1.45;;;0.60;;
30380;SDS011;17169;50.966;11.038;2023-08-07T05:43:15;0.50;;;0.40;;
30380;SDS011;17169;50.966;11.038;2023-08-07T05:46:18;0.73;;;0.40;;
30380;SDS011;17169;50.966;11.038;2023-08-07T05:49:21;1.85;;;0.50;;
30380;SDS011;17169;50.966;11.038;2023-08-07T05:52:23;3.03;;;0.50;;
30380;SDS011;17169;50.966;11.038;2023-08-07T05:55:25;0.88;;;0.50;;
30380;SDS011;17169;50.966;11.038;2023-08-07T05:58:29;0.50;;;0.50;;
30380;SDS011;17169;50.966;11.038;2023-08-07T06:01:32;1.02;;;0.52;;
30380;SDS011;17169;50.966;11.038;2023-08-07T06:04:34;2.25;;;0.60;;
30380;SDS011;17169;50.966;11.038;2023-08-07T06:07:36;0.60;;;0.60;;
30380;SDS011;17169;50.966;11.038;2023-08-07T06:10:39;1.00;;;0.55;;
30380;SDS011;17169;50.966;11.038;2023-08-07T06:13:43;0.68;;;0.52;;
30380;SDS011;17169;50.966;11.038;2023-08-07T06:16:45;3.70;;;0.60;;
30380;SDS011;17169;50.966;11.038;2023-08-07T06:19:48;1.00;;;0.40;;
30380;SDS011;17169;50.966;11.038;2023-08-07T06:22:50;2.40;;;0.60;;
30380;SDS011;17169;50.966;11.038;2023-08-07T06:25:53;1.00;;;0.60;;
30380;SDS011;17169;50.966;11.038;2023-08-07T06:28:57;0.77;;;0.50;;
30380;SDS011;17169;50.966;11.038;2023-08-07T06:31:59;1.13;;;0.40;;
30380;SDS011;17169;50.966;11.038;2023-08-07T06:35:02;0.50;;;0.50;;
30380;SDS011;17169;50.966;11.038;2023-08-07T06:38:04;7.57;;;0.70;;
30380;SDS011;17169;50.966;11.038;2023-08-07T06:41:07;3.72;;;0.57;;
30380;SDS011;17169;50.966;11.038;2023-08-07T06:44:11;0.95;;;0.55;;
30380;SDS011;17169;50.966;11.038;2023-08-07T06:47:13;0.45;;;0.45;;
30380;SDS011;17169;50.966;11.038;2023-08-07T06:50:15;0.63;;;0.57;;
30380;SDS011;17169;50.966;11.038;2023-08-07T06:53:18;7.30;;;0.52;;
30380;SDS011;17169;50.966;11.038;2023-08-07T06:56:21;0.73;;;0.50;;
30380;SDS011;17169;50.966;11.038;2023-08-07T06:59:24;0.55;;;0.55;;
30380;SDS011;17169;50.966;11.038;2023-08-07T07:02:27;0.43;;;0.43;;
30380;SDS011;17169;50.966;11.038;2023-08-07T07:05:29;1.10;;;0.40;;
30380;SDS011;17169;50.966;11.038;2023-08-07T07:08:32;7.13;;;0.70;;
30380;SDS011;17169;50.966;11.038;2023-08-07T07:11:34;0.60;;;0.40;;
30380;SDS011;17169;50.966;11.038;2023-08-07T07:14:38;1.50;;;0.40;;
30380;SDS011;17169;50.966;11.038;2023-08-07T07:17:40;1.15;;;0.52;;
30380;SDS011;17169;50.966;11.038;2023-08-07T07:20:42;0.70;;;0.40;;
30380;SDS011;17169;50.966;11.038;2023-08-07T07:23:45;0.32;;;0.32;;
30380;SDS011;17169;50.966;11.038;2023-08-07T07:26:47;0.85;;;0.40;;
30380;SDS011;17169;50.966;11.038;2023-08-07T07:29:51;0.38;;;0.38;;
30380;SDS011;17169;50.966;11.038;2023-08-07T07:32:53;0.30;;;0.30;;
30380;SDS011;17169;50.966;11.038;2023-08-07T07:35:56;0.30;;;0.30;;
30380;SDS011;17169;50.966;11.038;2023-08-07T07:38:58;0.82;;;0.50;;
30380;SDS011;17169;50.966;11.038;2023-08-07T07:42:00;0.28;;;0.28;;
30380;SDS011;17169;50.966;11.038;2023-08-07T07:45:06;0.40;;;0.20;;
30380;SDS011;17169;50.966;11.038;2023-08-07T07:48:08;3.53;;;0.30;;
30380;SDS011;17169;50.966;11.038;2023-08-07T07:51:11;1.85;;;0.30;;
30380;SDS011;17169;50.966;11.038;2023-08-07T07:54:13;1.08;;;0.50;;
30380;SDS011;17169;50.966;11.038;2023-08-07T07:57:16;0.75;;;0.40;;
30380;SDS011;17169;50.966;11.038;2023-08-07T08:00:20;0.30;;;0.30;;
30380;SDS011;17169;50.966;11.038;2023-08-07T08:03:26;0.90;;;0.32;;
30380;SDS011;17169;50.966;11.038;2023-08-07T08:06:29;0.65;;;0.30;;
30380;SDS011;17169;50.966;11.038;2023-08-07T08:09:31;1.65;;;0.43;;
30380;SDS011;17169;50.966;11.038;2023-08-07T08:12:34;0.50;;;0.35;;
30380;SDS011;17169;50.966;11.038;2023-08-07T08:15:39;0.50;;;0.40;;
30380;SDS011;17169;50.966;11.038;2023-08-07T08:18:41;0.30;;;0.30;;
30380;SDS011;17169;50.966;11.038;2023-08-07T08:21:44;0.50;;;0.40;;
30380;SDS011;17169;50.966;11.038;2023-08-07T08:24:46;1.52;;;0.55;;
30380;SDS011;17169;50.966;11.038;2023-08-07T08:27:49;0.55;;;0.45;;
30380;SDS011;17169;50.966;11.038;2023-08-07T08:30:52;0.80;;;0.43;;
30380;SDS011;17169;50.966;11.038;2023-08-07T08:33:55;0.85;;;0.50;;
30380;SDS011;17169;50.966;11.038;2023-08-07T08:36:58;1.60;;;0.47;;
30380;SDS011;17169;50.966;11.038;2023-08-07T08:40:00;0.47;;;0.32;;
30380;SDS011;17169;50.966;11.038;2023-08-07T08:43:03;1.20;;;0.50;;
30380;SDS011;17169;50.966;11.038;2023-08-07T08:46:08;1.15;;;0.45;;
30380;SDS011;17169;50.966;11.038;2023-08-07T08:49:12;1.65;;;0.50;;
30380;SDS011;17169;50.966;11.038;2023-08-07T08:52:21;0.50;;;0.50;;
30380;SDS011;17169;50.966;11.038;2023-08-07T08:55:24;0.38;;;0.38;;
30380;SDS011;17169;50.966;11.038;2023-08-07T08:58:28;0.75;;;0.30;;
30380;SDS011;17169;50.966;11.038;2023-08-07T09:01:32;1.00;;;0.40;;
30380;SDS011;17169;50.966;11.038;2023-08-07T09:04:35;0.50;;;0.40;;
30380;SDS011;17169;50.966;11.038;2023-08-07T09:07:37;1.27;;;0.50;;
30380;SDS011;17169;50.966;11.038;2023-08-07T09:10:40;0.50;;;0.35;;
30380;SDS011;17169;50.966;11.038;2023-08-07T09:13:42;0.22;;;0.22;;
30380;SDS011;17169;50.966;11.038;2023-08-07T09:16:48;0.20;;;0.20;;
30380;SDS011;17169;50.966;11.038;2023-08-07T09:19:51;0.20;;;0.20;;
30380;SDS011;17169;50.966;11.038;2023-08-07T09:22:54;0.35;;;0.30;;
30380;SDS011;17169;50.966;11.038;2023-08-07T09:25:59;0.30;;;0.30;;
30380;SDS011;17169;50.966;11.038;2023-08-07T09:29:02;0.60;;;0.30;;
30380;SDS011;17169;50.966;11.038;2023-08-07T09:32:09;1.85;;;0.40;;
30380;SDS011;17169;50.966;11.038;2023-08-07T09:35:14;0.32;;;0.20;;
30380;SDS011;17169;50.966;11.038;2023-08-07T09:38:17;0.30;;;0.30;;
30380;SDS011;17169;50.966;11.038;2023-08-07T09:41:19;0.65;;;0.30;;
30380;SDS011;17169;50.966;11.038;2023-08-07T09:44:21;0.75;;;0.38;;
30380;SDS011;17169;50.966;11.038;2023-08-07T09:47:25;0.38;;;0.25;;
30380;SDS011;17169;50.966;11.038;2023-08-07T09:50:29;2.60;;;0.30;;
30380;SDS011;17169;50.966;11.038;2023-08-07T09:53:32;0.30;;;0.30;;
30380;SDS011;17169;50.966;11.038;2023-08-07T09:56:34;1.58;;;0.30;;
30380;SDS011;17169;50.966;11.038;2023-08-07T09:59:37;0.68;;;0.30;;
30380;SDS011;17169;50.966;11.038;2023-08-07T10:02:41;0.30;;;0.30;;
30380;SDS011;17169;50.966;11.038;2023-08-07T10:05:44;0.70;;;0.20;;
30380;SDS011;17169;50.966;11.038;2023-08-07T10:08:47;0.95;;;0.40;;
30380;SDS011;17169;50.966;11.038;2023-08-07T10:11:50;0.93;;;0.57;;
30380;SDS011;17169;50.966;11.038;2023-08-07T10:14:53;0.43;;;0.35;;
30380;SDS011;17169;50.966;11.038;2023-08-07T10:17:57;0.38;;;0.28;;
30380;SDS011;17169;50.966;11.038;2023-08-07T10:21:00;0.80;;;0.25;;
30380;SDS011;17169;50.966;11.038;2023-08-07T10:24:04;1.10;;;0.50;;
30380;SDS011;17169;50.966;11.038;2023-08-07T10:27:06;0.25;;;0.25;;
30380;SDS011;17169;50.966;11.038;2023-08-07T10:30:11;0.40;;;0.40;;
30380;SDS011;17169;50.966;11.038;2023-08-07T10:33:17;4.07;;;0.40;;
30380;SDS011;17169;50.966;11.038;2023-08-07T10:36:20;2.45;;;0.40;;
30380;SDS011;17169;50.966;11.038;2023-08-07T10:39:23;0.98;;;0.30;;
30380;SDS011;17169;50.966;11.038;2023-08-07T10:42:25;1.08;;;0.50;;
30380;SDS011;17169;50.966;11.038;2023-08-07T10:45:27;0.93;;;0.40;;
30380;SDS011;17169;50.966;11.038;2023-08-07T10:48:31;3.70;;;1.00;;
30380;SDS011;17169;50.966;11.038;2023-08-07T10:51:39;2.00;;;0.60;;
30380;SDS011;17169;50.966;11.038;2023-08-07T10:54:44;0.35;;;0.35;;
30380;SDS011;17169;50.966;11.038;2023-08-07T10:57:48;1.33;;;0.43;;
30380;SDS011;17169;50.966;11.038;2023-08-07T11:00:50;1.58;;;0.47;;
30380;SDS011;17169;50.966;11.038;2023-08-07T11:03:56;0.50;;;0.40;;
30380;SDS011;17169;50.966;11.038;2023-08-07T11:06:59;1.45;;;0.57;;
30380;SDS011;17169;50.966;11.038;2023-08-07T11:10:02;0.30;;;0.30;;
30380;SDS011;17169;50.966;11.038;2023-08-07T11:13:06;1.40;;;0.93;;
30380;SDS011;17169;50.966;11.038;2023-08-07T11:16:08;2.53;;;0.45;;
30380;SDS011;17169;50.966;11.038;2023-08-07T11:19:13;1.52;;;0.52;;
30380;SDS011;17169;50.966;11.038;2023-08-07T11:22:16;0.47;;;0.40;;
30380;SDS011;17169;50.966;11.038;2023-08-07T11:25:18;1.05;;;0.50;;
30380;SDS011;17169;50.966;11.038;2023-08-07T11:28:21;4.38;;;0.60;;
30380;SDS011;17169;50.966;11.038;2023-08-07T11:31:24;1.27;;;0.43;;
30380;SDS011;17169;50.966;11.038;2023-08-07T11:34:29;2.50;;;0.73;;
30380;SDS011;17169;50.966;11.038;2023-08-07T11:37:32;0.82;;;0.50;;
30380;SDS011;17169;50.966;11.038;2023-08-07T11:40:34;3.10;;;0.60;;
30380;SDS011;17169;50.966;11.038;2023-08-07T11:43:37;2.58;;;0.70;;
30380;SDS011;17169;50.966;11.038;2023-08-07T11:46:39;1.08;;;0.60;;
30380;SDS011;17169;50.966;11.038;2023-08-07T11:49:44;6.03;;;0.80;;
30380;SDS011;17169;50.966;11.038;2023-08-07T11:52:46;1.40;;;0.68;;
30380;SDS011;17169;50.966;11.038;2023-08-07T11:55:52;5.05;;;0.82;;
30380;SDS011;17169;50.966;11.038;2023-08-07T11:58:56;1.25;;;0.63;;
30380;SDS011;17169;50.966;11.038;2023-08-07T12:01:59;1.38;;;0.60;;
30380;SDS011;17169;50.966;11.038;2023-08-07T12:05:13;5.18;;;0.68;;
30380;SDS011;17169;50.966;11.038;2023-08-07T12:08:15;2.17;;;0.70;;
30380;SDS011;17169;50.966;11.038;2023-08-07T12:11:18;3.03;;;0.50;;
30380;SDS011;17169;50.966;11.038;2023-08-07T12:14:21;1.52;;;0.70;;
30380;SDS011;17169;50.966;11.038;2023-08-07T12:17:23;0.70;;;0.40;;
30380;SDS011;17169;50.966;11.038;2023-08-07T12:20:27;1.52;;;0.60;;
30380;SDS011;17169;50.966;11.038;2023-08-07T12:23:32;0.80;;;0.65;;
30380;SDS011;17169;50.966;11.038;2023-08-07T12:26:36;1.60;;;0.60;;
30380;SDS011;17169;50.966;11.038;2023-08-07T12:29:38;0.93;;;0.50;;
30380;SDS011;17169;50.966;11.038;2023-08-07T12:32:40;1.30;;;0.60;;
30380;SDS011;17169;50.966;11.038;2023-08-07T12:35:44;1.48;;;0.68;;
30380;SDS011;17169;50.966;11.038;2023-08-07T12:38:47;1.10;;;0.50;;
30380;SDS011;17169;50.966;11.038;2023-08-07T12:41:49;1.25;;;0.93;;
30380;SDS011;17169;50.966;11.038;2023-08-07T12:44:52;3.20;;;0.60;;
30380;SDS011;17169;50.966;11.038;2023-08-07T12:47:54;2.78;;;0.60;;
30380;SDS011;17169;50.966;11.038;2023-08-07T12:50:58;2.92;;;0.70;;
30380;SDS011;17169;50.966;11.038;2023-08-07T12:54:00;2.28;;;0.60;;
30380;SDS011;17169;50.966;11.038;2023-08-07T12:57:03;0.47;;;0.47;;
30380;SDS011;17169;50.966;11.038;2023-08-07T13:00:06;2.92;;;0.60;;
30380;SDS011;17169;50.966;11.038;2023-08-07T13:03:12;0.70;;;0.40;;
30380;SDS011;17169;50.966;11.038;2023-08-07T13:06:16;1.30;;;0.50;;
30380;SDS011;17169;50.966;11.038;2023-08-07T13:09:18;1.17;;;0.63;;
30380;SDS011;17169;50.966;11.038;2023-08-07T13:12:21;1.13;;;0.55;;
30380;SDS011;17169;50.966;11.038;2023-08-07T13:15:23;1.55;;;0.50;;
30380;SDS011;17169;50.966;11.038;2023-08-07T13:18:26;0.57;;;0.50;;
30380;SDS011;17169;50.966;11.038;2023-08-07T13:21:30;7.22;;;0.60;;
30380;SDS011;17169;50.966;11.038;2023-08-07T13:24:32;1.27;;;0.57;;
30380;SDS011;17169;50.966;11.038;2023-08-07T13:27:35;1.25;;;0.70;;
30380;SDS011;17169;50.966;11.038;2023-08-07T13:30:38;0.73;;;0.43;;
30380;SDS011;17169;50.966;11.038;2023-08-07T13:33:40;3.50;;;0.70;;
30380;SDS011;17169;50.966;11.038;2023-08-07T13:36:44;1.70;;;0.40;;
30380;SDS011;17169;50.966;11.038;2023-08-07T13:39:46;4.55;;;0.70;;
30380;SDS011;17169;50.966;11.038;2023-08-07T13:42:51;1.65;;;0.60;;
30380;SDS011;17169;50.966;11.038;2023-08-07T13:45:53;3.83;;;0.52;;
30380;SDS011;17169;50.966;11.038;2023-08-07T13:48:56;0.88;;;0.60;;
30380;SDS011;17169;50.966;11.038;2023-08-07T13:51:59;2.00;;;0.68;;
30380;SDS011;17169;50.966;11.038;2023-08-07T13:55:02;3.28;;;0.70;;
30380;SDS011;17169;50.966;11.038;2023-08-07T13:58:05;1.90;;;0.55;;
30380;SDS011;17169;50.966;11.038;2023-08-07T14:01:07;3.03;;;1.48;;
30380;SDS011;17169;50.966;11.038;2023-08-07T14:04:09;4.93;;;0.70;;
30380;SDS011;17169;50.966;11.038;2023-08-07T14:07:15;1.23;;;0.60;;
30380;SDS011;17169;50.966;11.038;2023-08-07T14:10:17;1.35;;;0.57;;
30380;SDS011;17169;50.966;11.038;2023-08-07T14:13:20;0.40;;;0.40;;
30380;SDS011;17169;50.966;11.038;2023-08-07T14:16:22;2.00;;;0.63;;
30380;SDS011;17169;50.966;11.038;2023-08-07T14:19:25;1.10;;;0.70;;
30380;SDS011;17169;50.966;11.038;2023-08-07T14:22:28;3.42;;;0.80;;
30380;SDS011;17169;50.966;11.038;2023-08-07T14:25:31;1.27;;;0.70;;
30380;SDS011;17169;50.966;11.038;2023-08-07T14:28:33;2.03;;;0.65;;
30380;SDS011;17169;50.966;11.038;2023-08-07T14:31:36;1.40;;;0.50;;
30380;SDS011;17169;50.966;11.038;2023-08-07T14:34:39;3.65;;;0.90;;
30380;SDS011;17169;50.966;11.038;2023-08-07T14:37:44;2.70;;;0.80;;
30380;SDS011;17169;50.966;11.038;2023-08-07T14:40:48;5.47;;;1.10;;
30380;SDS011;17169;50.966;11.038;2023-08-07T14:43:50;3.92;;;1.20;;
30380;SDS011;17169;50.966;11.038;2023-08-07T14:46:53;4.22;;;1.20;;
30380;SDS011;17169;50.966;11.038;2023-08-07T14:49:55;3.42;;;1.02;;
30380;SDS011;17169;50.966;11.038;2023-08-07T14:52:59;7.97;;;1.30;;
30380;SDS011;17169;50.966;11.038;2023-08-07T14:56:01;4.82;;;1.50;;
30380;SDS011;17169;50.966;11.038;2023-08-07T14:59:04;6.28;;;1.98;;
30380;SDS011;17169;50.966;11.038;2023-08-07T15:02:06;6.25;;;1.95;;
30380;SDS011;17169;50.966;11.038;2023-08-07T15:05:09;8.52;;;2.20;;
30380;SDS011;17169;50.966;11.038;2023-08-07T15:08:12;7.07;;;2.30;;
30380;SDS011;17169;50.966;11.038;2023-08-07T15:11:15;8.02;;;2.20;;
30380;SDS011;17169;50.966;11.038;2023-08-07T15:14:18;6.00;;;2.00;;
30380;SDS011;17169;50.966;11.038;2023-08-07T15:17:20;5.95;;;1.80;;
30380;SDS011;17169;50.966;11.038;2023-08-07T15:20:23;7.03;;;2.10;;
30380;SDS011;17169;50.966;11.038;2023-08-07T15:23:27;8.52;;;1.77;;
30380;SDS011;17169;50.966;11.038;2023-08-07T15:26:29;5.95;;;2.22;;
30380;SDS011;17169;50.966;11.038;2023-08-07T15:29:31;5.55;;;2.20;;
30380;SDS011;17169;50.966;11.038;2023-08-07T15:32:34;8.13;;;2.17;;
30380;SDS011;17169;50.966;11.038;2023-08-07T15:35:36;8.40;;;1.77;;
30380;SDS011;17169;50.966;11.038;2023-08-07T15:38:40;5.13;;;1.52;;
30380;SDS011;17169;50.966;11.038;2023-08-07T15:41:42;2.78;;;1.27;;
30380;SDS011;17169;50.966;11.038;2023-08-07T15:44:44;6.07;;;2.10;;
30380;SDS011;17169;50.966;11.038;2023-08-07T15:47:47;4.72;;;1.52;;
30380;SDS011;17169;50.966;11.038;2023-08-07T15:50:49;9.57;;;2.03;;
30380;SDS011;17169;50.966;11.038;2023-08-07T15:53:53;5.10;;;1.63;;
30380;SDS011;17169;50.966;11.038;2023-08-07T15:56:58;5.15;;;1.92;;
30380;SDS011;17169;50.966;11.038;2023-08-07T16:00:00;6.38;;;1.88;;
30380;SDS011;17169;50.966;11.038;2023-08-07T16:03:03;4.97;;;1.98;;
30380;SDS011;17169;50.966;11.038;2023-08-07T16:06:07;5.40;;;1.90;;
30380;SDS011;17169;50.966;11.038;2023-08-07T16:09:10;7.85;;;1.73;;
30380;SDS011;17169;50.966;11.038;2023-08-07T16:12:13;5.90;;;1.93;;
30380;SDS011;17169;50.966;11.038;2023-08-07T16:15:17;6.25;;;2.35;;
30380;SDS011;17169;50.966;11.038;2023-08-07T16:18:20;7.22;;;2.35;;
30380;SDS011;17169;50.966;11.038;2023-08-07T16:21:22;8.02;;;2.22;;
30380;SDS011;17169;50.966;11.038;2023-08-07T16:24:26;4.95;;;2.00;;
30380;SDS011;17169;50.966;11.038;2023-08-07T16:27:28;9.23;;;1.60;;
30380;SDS011;17169;50.966;11.038;2023-08-07T16:30:31;6.75;;;2.30;;
30380;SDS011;17169;50.966;11.038;2023-08-07T16:33:33;3.90;;;1.58;;
30380;SDS011;17169;50.966;11.038;2023-08-07T16:36:36;4.75;;;1.98;;
30380;SDS011;17169;50.966;11.038;2023-08-07T16:39:39;4.68;;;1.98;;
30380;SDS011;17169;50.966;11.038;2023-08-07T16:42:42;4.53;;;1.80;;
30380;SDS011;17169;50.966;11.038;2023-08-07T16:45:45;3.90;;;1.55;;
30380;SDS011;17169;50.966;11.038;2023-08-07T16:48:47;6.05;;;1.95;;
30380;SDS011;17169;50.966;11.038;2023-08-07T16:51:50;7.05;;;2.47;;
30380;SDS011;17169;50.966;11.038;2023-08-07T16:54:56;5.38;;;1.80;;
30380;SDS011;17169;50.966;11.038;2023-08-07T16:57:59;8.03;;;1.70;;
30380;SDS011;17169;50.966;11.038;2023-08-07T17:01:01;6.80;;;1.90;;
30380;SDS011;17169;50.966;11.038;2023-08-07T17:04:04;5.35;;;1.50;;
30380;SDS011;17169;50.966;11.038;2023-08-07T17:07:06;7.70;;;1.85;;
30380;SDS011;17169;50.966;11.038;2023-08-07T17:10:11;3.47;;;1.42;;
30380;SDS011;17169;50.966;11.038;2023-08-07T17:13:16;7.53;;;1.42;;
30380;SDS011;17169;50.966;11.038;2023-08-07T17:16:19;6.80;;;1.65;;
30380;SDS011;17169;50.966;11.038;2023-08-07T17:19:21;4.28;;;1.40;;
30380;SDS011;17169;50.966;11.038;2023-08-07T17:22:23;6.30;;;1.55;;
30380;SDS011;17169;50.966;11.038;2023-08-07T17:25:27;4.57;;;1.48;;
30380;SDS011;17169;50.966;11.038;2023-08-07T17:28:29;6.93;;;1.65;;
30380;SDS011;17169;50.966;11.038;2023-08-07T17:31:32;3.60;;;1.58;;
30380;SDS011;17169;50.966;11.038;2023-08-07T17:34:34;6.47;;;1.60;;
30380;SDS011;17169;50.966;11.038;2023-08-07T17:37:36;9.70;;;1.77;;
30380;SDS011;17169;50.966;11.038;2023-08-07T17:40:40;6.05;;;1.48;;
30380;SDS011;17169;50.966;11.038;2023-08-07T17:43:43;8.93;;;1.45;;
30380;SDS011;17169;50.966;11.038;2023-08-07T17:46:45;10.38;;;2.65;;
30380;SDS011;17169;50.966;11.038;2023-08-07T17:49:47;6.85;;;1.60;;
30380;SDS011;17169;50.966;11.038;2023-08-07T17:52:50;6.03;;;2.22;;
30380;SDS011;17169;50.966;11.038;2023-08-07T17:55:53;7.07;;;2.17;;
30380;SDS011;17169;50.966;11.038;2023-08-07T17:58:56;4.82;;;1.67;;
30380;SDS011;17169;50.966;11.038;2023-08-07T18:01:58;6.78;;;2.20;;
30380;SDS011;17169;50.966;11.038;2023-08-07T18:05:01;5.55;;;1.77;;